Time;durP1;ratioP1;P1;durP2;ratioP2;P2;SDS_P1;SDS_P2;PMS_P1;PMS_P2;Temp;Humidity;BMP_temperature;BMP_pressure;BME280_temperature;BME280_humidity;BME280_pressure;Samples;Min_cycle;Max_cycle;Signal;HPM_P1;HPM_P2
2022/01/22 00:01:18;;;;;;;0.00;0.00;;;;;27.50;100140.00;;;;5110367;28;20035;-77
2022/01/22 00:03:48;;;;;;;0.00;0.00;;;;;27.20;100137.00;;;;5110322;28;20142;-77
2022/01/22 00:06:17;;;;;;;0.00;0.00;;;;;27.00;100154.00;;;;5110401;28;20517;-77
2022/01/22 00:08:46;;;;;;;0.00;0.00;;;;;26.80;100144.00;;;;5109896;28;20047;-78
2022/01/22 00:11:16;;;;;;;0.10;0.10;;;;;26.50;100149.00;;;;5110040;28;20046;-77
2022/01/22 00:16:33;;;;;;;0.05;0.05;;;;;25.90;100148.00;;;;5110499;28;20044;-76
2022/01/22 00:19:08;;;;;;;;;;;;;25.80;100144.00;;;;5109224;28;20048;-76
2022/01/22 00:21:38;;;;;;;0.00;0.00;;;;;25.90;100130.00;;;;5110432;28;19967;-76
2022/01/22 00:24:10;;;;;;;0.00;0.00;;;;;25.90;100143.00;;;;5108480;28;20048;-77
2022/01/22 00:26:42;;;;;;;0.00;0.00;;;;;25.80;100124.00;;;;5109155;28;20062;-77
2022/01/22 00:29:12;;;;;;;0.80;0.52;;;;;25.70;100119.00;;;;5109394;28;20039;-77
2022/01/22 00:31:41;;;;;;;1.08;0.65;;;;;25.70;100123.00;;;;5106708;28;20036;-77
2022/01/22 00:34:11;;;;;;;0.00;0.00;;;;;25.70;100136.00;;;;5107851;28;20083;-77
2022/01/22 00:36:40;;;;;;;0.00;0.00;;;;;25.70;100127.00;;;;5108899;28;20051;-77
2022/01/22 00:39:10;;;;;;;0.00;0.00;;;;;25.60;100124.00;;;;5109356;28;20044;-77
2022/01/22 00:41:39;;;;;;;0.00;0.00;;;;;25.60;100130.00;;;;5109584;28;20054;-77
2022/01/22 00:44:10;;;;;;;0.00;0.00;;;;;25.50;100138.00;;;;5108197;28;20134;-77
2022/01/22 00:46:41;;;;;;;0.00;0.00;;;;;25.50;100138.00;;;;5110004;27;20062;-77
2022/01/22 00:49:10;;;;;;;0.00;0.00;;;;;25.50;100130.00;;;;5109791;28;20043;-77
2022/01/22 00:51:40;;;;;;;0.00;0.00;;;;;25.50;100121.00;;;;5109297;28;20048;-77
2022/01/22 00:54:09;;;;;;;0.00;0.00;;;;;25.50;100119.00;;;;5109116;28;20387;-77
2022/01/22 00:56:38;;;;;;;0.00;0.00;;;;;25.40;100118.00;;;;5108905;28;20039;-77
2022/01/22 00:59:08;;;;;;;0.00;0.00;;;;;25.40;100111.00;;;;5107638;28;20044;-77
2022/01/22 01:01:37;;;;;;;0.00;0.00;;;;;25.50;100111.00;;;;5108291;28;20139;-77
2022/01/22 01:04:09;;;;;;;0.00;0.00;;;;;25.80;100105.00;;;;5109380;27;20089;-77
2022/01/22 01:06:40;;;;;;;0.00;0.00;;;;;26.00;100107.00;;;;5108974;28;20414;-77
2022/01/22 01:09:11;;;;;;;0.00;0.00;;;;;26.30;100100.00;;;;5108815;28;20498;-77
2022/01/22 01:11:51;;;;;;;;;;;;;26.50;100115.00;;;;5107883;28;20058;-77
2022/01/22 01:14:31;;;;;;;0.00;0.00;;;;;26.40;100113.00;;;;5107585;28;19923;-77
2022/01/22 01:33:58;;;;;;;0.20;0.17;;;;;25.80;100121.00;;;;5107336;28;20577;-76
2022/01/22 01:36:29;;;;;;;0.10;0.10;;;;;26.00;100117.00;;;;5106923;28;20118;-78
2022/01/22 01:39:02;;;;;;;0.00;0.00;;;;;26.00;100105.00;;;;5107270;28;20048;-77
2022/01/22 01:44:06;;;;;;;0.00;0.00;;;;;26.00;100111.00;;;;5106930;28;20601;-77
2022/01/22 01:46:58;;;;;;;0.00;0.00;;;;;25.90;100104.00;;;;5092034;28;20097;-77
2022/01/22 01:49:32;;;;;;;0.00;0.00;;;;;25.90;100102.00;;;;5106327;28;20119;-77
2022/01/22 01:52:07;;;;;;;0.00;0.00;;;;;25.90;100097.00;;;;5106721;28;20510;-77
2022/01/22 01:57:32;;;;;;;0.00;0.00;;;;;25.90;100102.00;;;;5107558;28;20044;-77
2022/01/22 02:00:03;;;;;;;0.00;0.00;;;;;25.70;100116.00;;;;5106538;28;20514;-77
2022/01/22 02:02:50;;;;;;;0.20;0.20;;;;;25.50;100096.00;;;;5106362;28;20071;-77
2022/01/22 02:05:23;;;;;;;0.00;0.00;;;;;25.40;100093.00;;;;5106143;28;20058;-77
2022/01/22 02:07:58;;;;;;;0.00;0.00;;;;;25.30;100090.00;;;;5106729;28;20409;-77
2022/01/22 02:10:59;;;;;;;0.00;0.00;;;;;25.20;100092.00;;;;5104658;28;20052;-77
2022/01/22 02:14:05;;;;;;;0.00;0.00;;;;;25.10;100087.00;;;;5093527;28;20644;-77
2022/01/22 02:25:35;;;;;;;0.00;0.00;;;;;24.90;100096.00;;;;5105818;28;20043;-77
2022/01/22 02:28:04;;;;;;;0.00;0.00;;;;;24.90;100093.00;;;;5105781;28;20073;-77
2022/01/22 02:30:42;;;;;;;0.00;0.00;;;;;24.80;100086.00;;;;5106157;28;20402;-77
2022/01/22 02:33:47;;;;;;;0.00;0.00;;;;;24.80;100091.00;;;;5106504;28;20228;-77
2022/01/22 02:41:23;;;;;;;0.00;0.00;;;;;24.80;100070.00;;;;5106090;28;20047;-77
2022/01/22 02:43:55;;;;;;;0.00;0.00;;;;;24.70;100091.00;;;;5106147;28;20039;-77
2022/01/22 02:46:27;;;;;;;0.00;0.00;;;;;24.60;100077.00;;;;5106635;28;20561;-77
2022/01/22 02:48:57;;;;;;;0.00;0.00;;;;;24.60;100079.00;;;;5106080;28;20448;-77
2022/01/22 02:51:28;;;;;;;0.00;0.00;;;;;24.60;100080.00;;;;5105684;28;20138;-77
2022/01/22 02:54:01;;;;;;;0.00;0.00;;;;;24.50;100076.00;;;;5105498;28;20047;-77
2022/01/22 02:56:31;;;;;;;0.00;0.00;;;;;24.50;100089.00;;;;5105806;28;20134;-77
2022/01/22 02:59:01;;;;;;;0.00;0.00;;;;;24.40;100082.00;;;;5105402;28;20083;-77
2022/01/22 03:01:30;;;;;;;0.00;0.00;;;;;24.40;100068.00;;;;5105451;28;20120;-77
2022/01/22 03:04:00;;;;;;;0.00;0.00;;;;;24.30;100066.00;;;;5105595;28;20055;-77
2022/01/22 03:06:29;;;;;;;0.00;0.00;;;;;24.30;100061.00;;;;5105066;28;20058;-77
2022/01/22 03:09:00;;;;;;;3.83;3.03;;;;;24.30;100075.00;;;;5105808;28;20542;-77
2022/01/22 03:11:40;;;;;;;0.00;0.00;;;;;24.20;100078.00;;;;5107455;28;20043;-77
2022/01/22 03:22:27;;;;;;;0.00;0.00;;;;;24.00;100090.00;;;;5105380;28;20042;-77
2022/01/22 03:27:45;;;;;;;0.00;0.00;;;;;24.00;100116.00;;;;5107019;28;20039;-77
2022/01/22 03:30:15;;;;;;;0.00;0.00;;;;;24.00;100119.00;;;;5105278;28;20491;-77
2022/01/22 03:32:49;;;;;;;0.00;0.00;;;;;24.00;100124.00;;;;5106441;28;20409;-77
2022/01/22 03:37:52;;;;;;;0.13;0.13;;;;;23.90;100105.00;;;;5105558;28;20517;-76
2022/01/22 03:40:26;;;;;;;0.38;0.38;;;;;23.90;100102.00;;;;5105416;28;20056;-77
2022/01/22 03:42:57;;;;;;;0.47;0.47;;;;;23.90;100115.00;;;;5106364;28;20050;-77
2022/01/22 03:45:27;;;;;;;0.00;0.00;;;;;24.10;100124.00;;;;5104616;28;20478;-76
2022/01/22 03:47:57;;;;;;;0.00;0.00;;;;;24.40;100106.00;;;;5105083;28;20056;-78
2022/01/22 03:50:27;;;;;;;0.10;0.10;;;;;24.50;100110.00;;;;5105438;28;20052;-77
2022/01/22 03:52:57;;;;;;;0.00;0.00;;;;;24.60;100109.00;;;;5106932;28;20483;-76
2022/01/22 03:55:39;;;;;;;0.00;0.00;;;;;24.70;100110.00;;;;5106685;28;20044;-77
2022/01/22 03:58:24;;;;;;;0.50;0.35;;;;;24.50;100123.00;;;;5106287;28;20066;-77
2022/01/22 04:04:38;;;;;;;0.32;0.32;;;;;24.30;100127.00;;;;5106737;28;20078;-77
2022/01/22 04:09:37;;;;;;;0.95;0.90;;;;;24.10;100124.00;;;;5104899;28;20075;-77
2022/01/22 04:12:09;;;;;;;0.22;0.22;;;;;24.10;100129.00;;;;5105066;28;20047;-77
2022/01/22 04:14:47;;;;;;;0.03;0.03;;;;;24.10;100112.00;;;;5106010;28;20525;-77
2022/01/22 04:17:25;;;;;;;0.63;0.30;;;;;24.10;100129.00;;;;5105017;28;20510;-77
2022/01/22 04:25:35;;;;;;;0.00;0.00;;;;;23.90;100108.00;;;;5110023;28;20044;-77
2022/01/22 04:28:05;;;;;;;0.00;0.00;;;;;23.90;100106.00;;;;5108290;28;20058;-77
2022/01/22 04:30:35;;;;;;;0.00;0.00;;;;;23.90;100109.00;;;;5110067;28;20042;-77
2022/01/22 04:33:05;;;;;;;0.00;0.00;;;;;23.90;100120.00;;;;5108114;28;20047;-77
2022/01/22 04:35:34;;;;;;;0.00;0.00;;;;;23.80;100104.00;;;;5108425;28;20048;-77
2022/01/22 04:38:05;;;;;;;0.00;0.00;;;;;23.80;100100.00;;;;5109799;28;20058;-77
2022/01/22 04:40:37;;;;;;;0.00;0.00;;;;;23.80;100109.00;;;;5108806;28;20047;-77
2022/01/22 04:43:07;;;;;;;0.00;0.00;;;;;23.70;100110.00;;;;5109434;28;20487;-78
2022/01/22 04:48:27;;;;;;;0.00;0.00;;;;;23.70;100124.00;;;;5107668;28;20162;-77
2022/01/22 04:56:47;;;;;;;0.00;0.00;;;;;23.70;100125.00;;;;5108091;28;20044;-77
2022/01/22 04:59:17;;;;;;;0.00;0.00;;;;;23.60;100110.00;;;;5107745;28;20044;-76
2022/01/22 05:01:47;;;;;;;0.00;0.00;;;;;23.60;100107.00;;;;5108971;28;20036;-76
2022/01/22 05:04:23;;;;;;;0.00;0.00;;;;;23.60;100121.00;;;;5107556;28;20059;-77
2022/01/22 05:07:15;;;;;;;0.00;0.00;;;;;23.60;100114.00;;;;5107369;28;20097;-77
2022/01/22 05:10:11;;;;;;;0.00;0.00;;;;;23.60;100111.00;;;;5106803;28;20203;-76
2022/01/22 05:12:42;;;;;;;0.00;0.00;;;;;23.50;100121.00;;;;5107546;28;20108;-76
2022/01/22 05:15:12;;;;;;;0.00;0.00;;;;;23.50;100114.00;;;;5107347;28;20054;-76
2022/01/22 05:17:43;;;;;;;0.00;0.00;;;;;23.50;100118.00;;;;5107715;28;20048;-76
2022/01/22 05:20:32;;;;;;;0.00;0.00;;;;;23.40;100120.00;;;;5107728;28;20054;-77
2022/01/22 05:23:11;;;;;;;0.00;0.00;;;;;23.40;100117.00;;;;5108052;28;20082;-77
2022/01/22 05:25:47;;;;;;;0.00;0.00;;;;;23.40;100104.00;;;;5107334;28;20078;-76
2022/01/22 05:31:36;;;;;;;0.00;0.00;;;;;23.40;100112.00;;;;5108933;28;20136;-76
2022/01/22 05:37:36;;;;;;;0.00;0.00;;;;;23.30;100128.00;;;;5087409;28;20050;-76
2022/01/22 05:40:06;;;;;;;0.00;0.00;;;;;23.30;100124.00;;;;5106741;28;20529;-76
2022/01/22 05:42:36;;;;;;;0.00;0.00;;;;;23.30;100130.00;;;;5108292;28;20039;-76
2022/01/22 05:45:07;;;;;;;0.00;0.00;;;;;23.20;100115.00;;;;5107233;28;20050;-77
2022/01/22 05:47:36;;;;;;;0.00;0.00;;;;;23.20;100110.00;;;;5108727;28;20528;-76
2022/01/22 05:50:12;;;;;;;0.00;0.00;;;;;23.20;100102.00;;;;5108499;28;20050;-76
2022/01/22 05:52:54;;;;;;;0.00;0.00;;;;;23.20;100106.00;;;;5107898;28;20051;-76
2022/01/22 05:59:35;;;;;;;0.00;0.00;;;;;23.20;100118.00;;;;5106283;28;20043;-76
2022/01/22 06:01:38;;;;;;;0.00;0.00;;;;;23.20;100115.00;;;;5106686;28;20127;-76
2022/01/22 06:04:15;;;;;;;0.28;0.25;;;;;23.20;100107.00;;;;5106742;28;20429;-76
2022/01/22 06:06:47;;;;;;;0.00;0.00;;;;;23.20;100110.00;;;;5106871;28;20046;-76
2022/01/22 06:09:17;;;;;;;0.00;0.00;;;;;23.20;100107.00;;;;5106758;28;20143;-76
2022/01/22 06:14:40;;;;;;;0.00;0.00;;;;;23.10;100120.00;;;;5107125;28;20040;-76
2022/01/22 06:17:10;;;;;;;0.00;0.00;;;;;23.10;100109.00;;;;5106633;28;20044;-76
2022/01/22 06:19:52;;;;;;;0.00;0.00;;;;;23.10;100117.00;;;;5106543;28;20067;-76
2022/01/22 06:22:22;;;;;;;0.00;0.00;;;;;23.10;100110.00;;;;5106400;28;20742;-76
2022/01/22 06:24:53;;;;;;;0.00;0.00;;;;;23.10;100120.00;;;;5105971;28;20177;-76
2022/01/22 06:27:22;;;;;;;0.00;0.00;;;;;23.10;100117.00;;;;5105878;28;20051;-76
2022/01/22 06:29:51;;;;;;;0.08;0.08;;;;;23.00;100108.00;;;;5089621;28;20542;-76
2022/01/22 06:32:22;;;;;;;0.00;0.00;;;;;23.10;100118.00;;;;5106272;28;20510;-76
2022/01/22 06:34:52;;;;;;;0.00;0.00;;;;;23.10;100115.00;;;;5106281;28;20562;-76
2022/01/22 06:37:21;;;;;;;0.00;0.00;;;;;23.10;100115.00;;;;5106110;28;20039;-76
2022/01/22 06:43:05;;;;;;;0.00;0.00;;;;;23.00;100119.00;;;;5106800;28;20058;-76
2022/01/22 06:45:58;;;;;;;0.00;0.00;;;;;23.00;100107.00;;;;5086699;28;20063;-76
2022/01/22 06:48:33;;;;;;;0.00;0.00;;;;;23.00;100111.00;;;;5105989;28;20059;-76
2022/01/22 06:51:27;;;;;;;0.00;0.00;;;;;22.90;100102.00;;;;5105630;28;20513;-77
2022/01/22 06:53:57;;;;;;;0.00;0.00;;;;;22.90;100103.00;;;;5105765;28;20048;-76
2022/01/22 06:56:29;;;;;;;0.00;0.00;;;;;22.90;100099.00;;;;5105500;28;20067;-76
2022/01/22 06:59:11;;;;;;;0.00;0.00;;;;;22.90;100102.00;;;;5104993;28;20051;-76
2022/01/22 07:01:45;;;;;;;0.00;0.00;;;;;22.80;100107.00;;;;5105843;28;20505;-76
2022/01/22 07:04:19;;;;;;;0.00;0.00;;;;;22.80;100097.00;;;;5105983;28;20166;-76
2022/01/22 07:07:18;;;;;;;0.00;0.00;;;;;22.80;100082.00;;;;5097552;28;20056;-76
2022/01/22 07:09:48;;;;;;;0.00;0.00;;;;;22.80;100093.00;;;;5105754;28;20387;-76
2022/01/22 07:12:18;;;;;;;0.00;0.00;;;;;22.80;100092.00;;;;5105860;28;20176;-76
2022/01/22 07:14:49;;;;;;;0.00;0.00;;;;;22.80;100095.00;;;;5105565;28;20104;-76
2022/01/22 07:17:19;;;;;;;0.00;0.00;;;;;22.80;100103.00;;;;5105795;28;20051;-76
2022/01/22 07:19:53;;;;;;;0.00;0.00;;;;;22.80;100082.00;;;;5105085;28;20055;-76
2022/01/22 07:25:33;;;;;;;0.00;0.00;;;;;22.70;100109.00;;;;5106651;28;20158;-76
2022/01/22 07:28:16;;;;;;;0.00;0.00;;;;;22.70;100095.00;;;;5105469;28;20142;-76
2022/01/22 07:30:48;;;;;;;;;;;;;22.70;100103.00;;;;5106369;28;20070;-76
2022/01/22 07:33:20;;;;;;;0.00;0.00;;;;;22.80;100105.00;;;;5104982;28;20022;-76
2022/01/22 07:35:52;;;;;;;0.00;0.00;;;;;22.80;100109.00;;;;5105531;28;20044;-76
2022/01/22 07:38:22;;;;;;;0.00;0.00;;;;;22.80;100104.00;;;;5105160;28;20047;-76
2022/01/22 07:40:51;;;;;;;0.00;0.00;;;;;22.80;100112.00;;;;5104874;28;20071;-76
2022/01/22 07:43:34;;;;;;;0.00;0.00;;;;;22.70;100107.00;;;;5105681;28;20058;-76
2022/01/22 07:46:22;;;;;;;0.00;0.00;;;;;22.70;100100.00;;;;5106266;28;20145;-77
2022/01/22 07:49:06;;;;;;;0.00;0.00;;;;;22.70;100105.00;;;;5104500;28;20146;-76
2022/01/22 07:51:45;;;;;;;0.00;0.00;;;;;22.70;100100.00;;;;5105424;28;20510;-76
2022/01/22 07:54:14;;;;;;;0.00;0.00;;;;;22.60;100092.00;;;;5109468;28;20043;-76
2022/01/22 07:56:44;;;;;;;0.00;0.00;;;;;22.60;100102.00;;;;5109360;28;20048;-76
2022/01/22 07:59:14;;;;;;;0.00;0.00;;;;;22.60;100103.00;;;;5109296;28;20044;-76
2022/01/22 08:01:52;;;;;;;0.00;0.00;;;;;22.60;100093.00;;;;5109030;28;20048;-76
2022/01/22 08:04:25;;;;;;;0.00;0.00;;;;;22.60;100093.00;;;;5109351;28;20078;-76
2022/01/22 08:07:13;;;;;;;0.00;0.00;;;;;22.60;100103.00;;;;5110245;28;20097;-76
2022/01/22 08:10:18;;;;;;;0.00;0.00;;;;;22.50;100089.00;;;;5066917;28;20518;-76
2022/01/22 08:12:52;;;;;;;0.00;0.00;;;;;22.60;100082.00;;;;5098899;28;20046;-76
2022/01/22 08:15:23;;;;;;;0.00;0.00;;;;;22.60;100083.00;;;;5108641;28;20055;-76
2022/01/22 08:17:55;;;;;;;0.00;0.00;;;;;22.50;100095.00;;;;5108621;28;20055;-76
2022/01/22 08:20:25;;;;;;;0.00;0.00;;;;;22.60;100080.00;;;;5108581;28;20058;-76
2022/01/22 08:22:55;;;;;;;0.00;0.00;;;;;22.50;100095.00;;;;5110764;28;20142;-76
2022/01/22 08:25:46;;;;;;;0.00;0.00;;;;;22.50;100099.00;;;;5110189;28;20548;-76
2022/01/22 08:31:20;;;;;;;0.00;0.00;;;;;22.50;100096.00;;;;5109021;28;20043;-76
2022/01/22 08:36:45;;;;;;;0.00;0.00;;;;;22.50;100100.00;;;;5107946;28;20526;-76
2022/01/22 08:39:18;;;;;;;0.00;0.00;;;;;22.50;100092.00;;;;5107691;28;20051;-76
2022/01/22 08:41:54;;;;;;;0.00;0.00;;;;;22.50;100099.00;;;;5109669;28;20043;-76
2022/01/22 08:44:25;;;;;;;0.00;0.00;;;;;22.50;100073.00;;;;5108533;28;20044;-77
2022/01/22 08:46:56;;;;;;;0.00;0.00;;;;;22.50;100092.00;;;;5107815;28;20498;-77
2022/01/22 08:49:26;;;;;;;;;;;;;22.50;100091.00;;;;5109030;28;20070;-76
2022/01/22 08:52:11;;;;;;;0.00;0.00;;;;;22.50;100081.00;;;;5107984;28;19924;-76
2022/01/22 08:54:43;;;;;;;0.00;0.00;;;;;22.50;100089.00;;;;5107448;28;20054;-76
2022/01/22 08:57:18;;;;;;;0.20;0.10;;;;;22.60;100097.00;;;;5091337;28;20047;-76
2022/01/22 09:00:11;;;;;;;0.80;0.73;;;;;22.60;100093.00;;;;5099858;28;20055;-76
2022/01/22 09:02:49;;;;;;;0.00;0.00;;;;;22.70;100089.00;;;;5107700;28;20414;-76
2022/01/22 09:05:36;;;;;;;0.00;0.00;;;;;22.80;100089.00;;;;5106407;28;20075;-76
2022/01/22 09:08:26;;;;;;;0.17;0.17;;;;;22.90;100087.00;;;;5086627;28;20503;-77
2022/01/22 09:11:14;;;;;;;0.00;0.00;;;;;23.00;100109.00;;;;5108855;28;20177;-76
2022/01/22 09:13:56;;;;;;;0.10;0.10;;;;;23.10;100109.00;;;;5109181;28;20050;-77
2022/01/22 09:16:32;;;;;;;0.10;0.10;;;;;23.20;100101.00;;;;5091497;28;20043;-76
2022/01/22 09:19:06;;;;;;;0.00;0.00;;;;;23.30;100105.00;;;;5107437;28;20078;-76
2022/01/22 09:21:40;;;;;;;0.30;0.30;;;;;23.30;100117.00;;;;5107229;28;20093;-76
2022/01/22 09:24:11;;;;;;;0.00;0.00;;;;;23.40;100106.00;;;;5107529;28;20054;-77
2022/01/22 09:26:42;;;;;;;0.00;0.00;;;;;23.50;100119.00;;;;5107708;28;20048;-77
2022/01/22 09:29:15;;;;;;;0.15;0.15;;;;;23.60;100113.00;;;;5089344;28;20105;-76
2022/01/22 09:31:46;;;;;;;0.00;0.00;;;;;23.80;100107.00;;;;5106216;28;20039;-76
2022/01/22 09:34:35;;;;;;;0.22;0.22;;;;;23.80;100113.00;;;;5107231;28;20044;-76
2022/01/22 09:37:17;;;;;;;0.00;0.00;;;;;23.90;100125.00;;;;5105778;28;20060;-76
2022/01/22 09:40:28;;;;;;;0.20;0.20;;;;;24.00;100120.00;;;;5065184;28;20455;-76
2022/01/22 09:43:12;;;;;;;0.00;0.00;;;;;24.10;100131.00;;;;5064694;28;20502;-76
2022/01/22 09:46:09;;;;;;;0.00;0.00;;;;;24.30;100134.00;;;;5098827;28;20056;-77
2022/01/22 09:49:04;;;;;;;0.00;0.00;;;;;24.50;100116.00;;;;5099501;28;20063;-76
2022/01/22 09:51:53;;;;;;;0.00;0.00;;;;;25.30;100063.00;;;;5107684;28;20067;-76
2022/01/22 09:54:49;;;;;;;0.00;0.00;;;;;26.80;100056.00;;;;5098479;28;20051;-77
2022/01/22 09:57:37;;;;;;;0.00;0.00;;;;;26.50;100078.00;;;;5107908;28;20059;-77
2022/01/22 10:00:45;;;;;;;0.00;0.00;;;;;28.80;99968.00;;;;5063978;28;20052;-76
2022/01/22 10:03:39;;;;;;;0.00;0.00;;;;;28.80;100053.00;;;;5064232;28;20060;-77
2022/01/22 10:06:28;;;;;;;0.00;0.00;;;;;29.80;99970.00;;;;5092024;28;20552;-77
2022/01/22 10:09:33;;;;;;;0.00;0.00;;;;;30.80;100023.00;;;;5090319;28;20499;-78
2022/01/22 10:12:31;;;;;;;0.00;0.00;;;;;27.60;100084.00;;;;5083230;28;20077;-77
2022/01/22 10:15:22;;;;;;;0.00;0.00;;;;;27.00;100108.00;;;;5106652;28;20056;-77
2022/01/22 10:17:55;;;;;;;0.00;0.00;;;;;27.00;100105.00;;;;5104013;28;20071;-77
2022/01/22 10:20:24;;;;;;;0.00;0.00;;;;;27.10;100111.00;;;;5107216;28;20093;-78
2022/01/22 10:22:56;;;;;;;0.00;0.00;;;;;26.90;100128.00;;;;5107459;28;20510;-77
2022/01/22 10:25:41;;;;;;;0.00;0.00;;;;;26.80;100133.00;;;;5106990;28;20465;-77
2022/01/22 10:28:19;;;;;;;0.00;0.00;;;;;26.90;100139.00;;;;5107362;28;20084;-77
2022/01/22 10:31:00;;;;;;;0.28;0.28;;;;;27.00;100118.00;;;;5107612;28;20085;-77
2022/01/22 10:34:11;;;;;;;0.00;0.00;;;;;27.90;100075.00;;;;5107483;28;20954;-77
2022/01/22 10:37:07;;;;;;;0.00;0.00;;;;;31.70;99972.00;;;;5104336;28;20120;-77
2022/01/22 10:39:51;;;;;;;0.00;0.00;;;;;33.80;99965.00;;;;5105541;28;20134;-78
2022/01/22 10:42:22;;;;;;;;;;;;;35.60;99951.00;;;;5107580;28;20093;-78
2022/01/22 10:45:00;;;;;;;2.35;0.43;;;;;36.70;99950.00;;;;5107108;28;19923;-77
2022/01/22 10:47:29;;;;;;;0.08;0.08;;;;;37.20;99966.00;;;;5106712;28;20044;-77
2022/01/22 10:50:20;;;;;;;0.00;0.00;;;;;35.60;100062.00;;;;5106874;28;20160;-77
2022/01/22 10:52:52;;;;;;;0.00;0.00;;;;;32.50;100080.00;;;;5107010;28;20070;-78
2022/01/22 10:55:24;;;;;;;0.00;0.00;;;;;32.20;100097.00;;;;5106643;27;20690;-78
2022/01/22 10:58:11;;;;;;;0.00;0.00;;;;;33.40;100041.00;;;;5106057;28;20070;-78
2022/01/22 11:00:40;;;;;;;0.00;0.00;;;;;33.80;100064.00;;;;5107360;28;20047;-78
2022/01/22 11:03:23;;;;;;;0.00;0.00;;;;;32.00;100139.00;;;;5107815;28;20039;-77
2022/01/22 11:05:53;;;;;;;0.50;0.20;;;;;30.90;100140.00;;;;5107149;28;20089;-77
2022/01/22 11:08:22;;;;;;;0.00;0.00;;;;;30.30;100154.00;;;;5106329;28;20096;-77
2022/01/22 11:10:52;;;;;;;0.05;0.05;;;;;30.30;100154.00;;;;5105251;28;20040;-78
2022/01/22 11:13:21;;;;;;;0.00;0.00;;;;;30.20;100136.00;;;;5106869;28;20039;-77
2022/01/22 11:15:52;;;;;;;0.00;0.00;;;;;31.20;100094.00;;;;5107076;28;20046;-78
2022/01/22 11:18:23;;;;;;;0.00;0.00;;;;;36.90;100012.00;;;;5106864;28;20044;-78
2022/01/22 11:20:53;;;;;;;0.03;0.03;;;;;39.10;100006.00;;;;5107167;28;20070;-77
2022/01/22 11:23:23;;;;;;;0.00;0.00;;;;;39.30;100008.00;;;;5106561;28;20097;-78
2022/01/22 11:25:54;;;;;;;0.00;0.00;;;;;39.70;100009.00;;;;5106520;28;20054;-78
2022/01/22 11:28:26;;;;;;;0.00;0.00;;;;;40.30;100024.00;;;;5110436;28;20093;-77
2022/01/22 11:30:59;;;;;;;32.95;1.75;;;;;40.60;100019.00;;;;5111266;28;20052;-78
2022/01/22 11:33:33;;;;;;;0.03;0.03;;;;;40.50;100003.00;;;;5111063;28;20043;-79
2022/01/22 11:36:09;;;;;;;0.00;0.00;;;;;40.30;99994.00;;;;5110976;28;20063;-79
2022/01/22 11:38:41;;;;;;;0.00;0.00;;;;;40.40;99993.00;;;;5110532;28;20039;-78
2022/01/22 11:41:15;;;;;;;0.00;0.00;;;;;40.20;100002.00;;;;5110799;28;20062;-79
2022/01/22 11:44:19;;;;;;;0.00;0.00;;;;;39.90;100008.00;;;;5110439;28;20482;-78
2022/01/22 11:46:59;;;;;;;0.00;0.00;;;;;39.20;100015.00;;;;5109989;28;20514;-80
2022/01/22 11:49:30;;;;;;;0.00;0.00;;;;;39.20;100023.00;;;;5110549;28;20387;-79
2022/01/22 11:52:11;;;;;;;0.00;0.00;;;;;39.10;100045.00;;;;5109489;28;20067;-78
2022/01/22 11:54:52;;;;;;;0.00;0.00;;;;;39.00;100043.00;;;;5110870;28;20050;-80
2022/01/22 11:57:22;;;;;;;0.00;0.00;;;;;39.30;100032.00;;;;5110575;28;20043;-79
2022/01/22 12:00:28;;;;;;;0.08;0.08;;;;;38.20;100047.00;;;;5109977;28;20775;-78
2022/01/22 12:03:03;;;;;;;0.00;0.00;;;;;37.40;100055.00;;;;5098792;28;20252;-80
2022/01/22 12:05:53;;;;;;;0.00;0.00;;;;;36.70;100087.00;;;;5108778;28;20043;-77
2022/01/22 12:08:23;;;;;;;0.00;0.00;;;;;36.60;100129.00;;;;5106636;28;20437;-79
2022/01/22 12:16:41;;;;;;;0.00;0.00;;;;;35.80;100152.00;;;;5109351;28;20047;-76
2022/01/22 12:19:47;;;;;;;0.08;0.08;;;;;35.70;100161.00;;;;5110443;28;20150;-76
2022/01/22 12:22:34;;;;;;;0.10;0.10;;;;;35.60;100155.00;;;;5109921;28;20073;-76
2022/01/22 12:25:24;;;;;;;0.00;0.00;;;;;35.40;100162.00;;;;5106670;28;20044;-78
2022/01/22 12:27:55;;;;;;;0.25;0.25;;;;;35.30;100148.00;;;;5098305;28;20559;-77
2022/01/22 12:30:44;;;;;;;0.03;0.03;;;;;35.60;100155.00;;;;5109629;28;20059;-79
2022/01/22 12:33:16;;;;;;;0.10;0.10;;;;;35.50;100150.00;;;;5109916;28;20044;-78
2022/01/22 12:35:47;;;;;;;0.00;0.00;;;;;35.70;100142.00;;;;5109993;28;20459;-75
2022/01/22 12:38:20;;;;;;;0.00;0.00;;;;;35.80;100151.00;;;;5109235;28;20081;-75
2022/01/22 12:40:55;;;;;;;0.20;0.08;;;;;36.10;100144.00;;;;5107788;28;20123;-76
2022/01/22 12:43:34;;;;;;;0.00;0.00;;;;;36.20;100146.00;;;;5107569;28;20047;-76
2022/01/22 12:46:05;;;;;;;0.45;0.40;;;;;36.10;100147.00;;;;5109771;28;20031;-78
2022/01/22 12:48:35;;;;;;;;;;;;;36.00;100147.00;;;;5108738;28;20063;-77
2022/01/22 12:51:09;;;;;;;0.13;0.13;;;;;36.40;100144.00;;;;5109755;28;19937;-75
2022/01/22 12:53:47;;;;;;;0.68;0.47;;;;;36.30;100146.00;;;;5108218;28;20044;-75
2022/01/22 12:59:05;;;;;;;0.50;0.50;;;;;36.50;100145.00;;;;5106556;28;20036;-75
2022/01/22 13:01:37;;;;;;;0.25;0.25;;;;;36.70;100151.00;;;;5108697;28;20043;-77
2022/01/22 13:04:08;;;;;;;0.08;0.08;;;;;37.00;100130.00;;;;5109236;28;20053;-76
2022/01/22 13:07:00;;;;;;;0.35;0.10;;;;;36.80;100141.00;;;;5093625;28;20514;-74
2022/01/22 13:09:51;;;;;;;0.35;0.35;;;;;36.70;100140.00;;;;5108226;28;20058;-75
2022/01/22 13:12:23;;;;;;;0.25;0.20;;;;;36.80;100133.00;;;;5107578;28;20085;-77
2022/01/22 13:14:57;;;;;;;0.00;0.00;;;;;36.90;100134.00;;;;5109013;28;20105;-76
2022/01/22 13:17:31;;;;;;;0.00;0.00;;;;;37.10;100130.00;;;;5108598;28;20126;-75
2022/01/22 13:20:01;;;;;;;0.25;0.25;;;;;37.00;100129.00;;;;5108514;28;20069;-78
2022/01/22 13:22:36;;;;;;;0.00;0.00;;;;;37.20;100143.00;;;;5108000;28;20097;-76
2022/01/22 13:25:13;;;;;;;0.17;0.10;;;;;37.30;100138.00;;;;5108394;28;20053;-75
2022/01/22 13:27:57;;;;;;;0.10;0.10;;;;;37.40;100132.00;;;;5108385;28;20562;-76
2022/01/22 13:30:35;;;;;;;2.20;0.22;;;;;37.60;100138.00;;;;5107364;28;20428;-77
2022/01/22 13:36:22;;;;;;;0.00;0.00;;;;;37.80;100139.00;;;;5107590;28;20039;-76
2022/01/22 13:50:05;;;;;;;0.63;0.08;;;;;38.20;100136.00;;;;5106414;28;20040;-77
2022/01/22 13:52:36;;;;;;;0.30;0.30;;;;;38.10;100132.00;;;;5104980;28;20534;-77
2022/01/22 13:55:06;;;;;;;0.15;0.15;;;;;37.90;100129.00;;;;5105256;28;20108;-79
2022/01/22 13:57:37;;;;;;;0.00;0.00;;;;;37.70;100134.00;;;;5106945;28;20506;-78
2022/01/22 14:00:18;;;;;;;0.47;0.47;;;;;38.20;100125.00;;;;5106992;28;20063;-79
2022/01/22 14:03:31;;;;;;;0.10;0.10;;;;;38.30;100127.00;;;;5107432;28;20053;-78
2022/01/22 14:06:02;;;;;;;0.00;0.00;;;;;38.30;100119.00;;;;5106232;28;20888;-77
2022/01/22 14:08:34;;;;;;;0.20;0.20;;;;;38.30;100120.00;;;;5106875;28;20494;-76
2022/01/22 14:11:09;;;;;;;0.10;0.10;;;;;38.10;100131.00;;;;5107671;28;20043;-78
2022/01/22 14:13:40;;;;;;;0.13;0.13;;;;;38.20;100115.00;;;;5107977;28;20134;-76
2022/01/22 14:16:18;;;;;;;0.00;0.00;;;;;38.60;100109.00;;;;5105059;28;20054;-78
2022/01/22 14:18:48;;;;;;;0.28;0.17;;;;;38.60;100117.00;;;;5105990;28;20050;-77
2022/01/22 14:21:21;;;;;;;0.10;0.10;;;;;38.60;100095.00;;;;5107029;28;20047;-77
2022/01/22 14:23:52;;;;;;;0.10;0.10;;;;;38.60;100088.00;;;;5105905;28;20043;-75
2022/01/22 14:26:28;;;;;;;;;;;;;38.50;100100.00;;;;5107540;28;20058;-75
2022/01/22 14:29:09;;;;;;;0.00;0.00;;;;;39.00;100091.00;;;;5104055;28;19962;-76
2022/01/22 14:31:47;;;;;;;1.65;0.30;;;;;38.90;100104.00;;;;5104944;28;20096;-77
2022/01/22 14:34:36;;;;;;;0.30;0.30;;;;;38.90;100092.00;;;;5106859;28;20114;-81
2022/01/22 14:37:07;;;;;;;0.10;0.10;;;;;38.90;100086.00;;;;5107360;28;20044;-78
2022/01/22 14:45:25;;;;;;;0.10;0.10;;;;;39.00;100070.00;;;;5107603;28;20730;-76
2022/01/22 14:47:58;;;;;;;0.90;0.60;;;;;39.30;100073.00;;;;5106619;28;20097;-76
2022/01/22 14:50:29;;;;;;;0.00;0.00;;;;;39.60;100062.00;;;;5105960;28;20050;-75
2022/01/22 14:53:01;;;;;;;0.03;0.03;;;;;39.40;100053.00;;;;5106101;28;20047;-76
2022/01/22 14:55:31;;;;;;;0.00;0.00;;;;;39.70;100057.00;;;;5104415;28;20040;-77
2022/01/22 14:58:00;;;;;;;0.00;0.00;;;;;39.90;100048.00;;;;5106561;28;20498;-75
2022/01/22 15:00:29;;;;;;;0.00;0.00;;;;;40.00;100046.00;;;;5106823;28;20054;-76
2022/01/22 15:02:59;;;;;;;0.03;0.03;;;;;39.80;100044.00;;;;5106776;28;20044;-76